createdAt,value
2023-05-11T00:02:02.431Z,3.80
2023-05-11T00:07:04.000Z,4.15
2023-05-11T00:12:06.041Z,4.18
2023-05-11T00:17:07.580Z,3.42
2023-05-11T00:22:09.068Z,3.20
2023-05-11T00:27:10.648Z,3.80
2023-05-11T00:32:12.355Z,4.25
2023-05-11T00:37:13.916Z,3.47
2023-05-11T00:42:15.410Z,2.28
2023-05-11T00:47:17.225Z,4.38
2023-05-11T00:52:19.606Z,2.90
2023-05-11T00:57:21.458Z,4.03
2023-05-11T01:02:23.043Z,4.47
2023-05-11T01:07:28.710Z,4.32
2023-05-11T01:12:46.064Z,3.90
2023-05-11T01:18:01.391Z,4.47
2023-05-11T01:23:18.501Z,4.15
2023-05-11T01:28:39.634Z,4.05
2023-05-11T01:33:51.476Z,4.72
2023-05-11T01:38:54.723Z,4.07
2023-05-11T01:44:03.002Z,3.95
2023-05-11T01:49:09.856Z,4.32
2023-05-11T01:54:11.888Z,4.28
2023-05-11T01:59:14.578Z,3.92
2023-05-11T02:04:19.772Z,4.82
2023-05-11T02:09:22.554Z,4.28
2023-05-11T02:14:28.469Z,5.72
2023-05-11T02:19:32.745Z,4.90
2023-05-11T02:24:35.603Z,5.68
2023-05-11T02:29:37.113Z,5.85
2023-05-11T02:34:41.562Z,4.60
2023-05-11T02:39:46.417Z,5.00
2023-05-11T02:44:56.547Z,4.30
2023-05-11T02:50:01.389Z,5.57
2023-05-11T02:55:06.479Z,4.97
2023-05-11T03:00:08.496Z,5.10
2023-05-11T03:05:10.188Z,4.10
2023-05-11T03:10:11.879Z,4.70
2023-05-11T03:15:18.547Z,4.60
2023-05-11T03:20:24.000Z,4.53
2023-05-11T03:25:25.998Z,4.30
2023-05-11T03:30:29.048Z,5.20
2023-05-11T03:35:34.932Z,4.88
2023-05-11T03:40:38.317Z,4.63
2023-05-11T03:45:42.798Z,3.83
2023-05-11T03:50:44.734Z,3.40
2023-05-11T03:55:46.258Z,4.72
2023-05-11T04:00:48.518Z,4.68
2023-05-11T04:05:50.005Z,3.17
2023-05-11T04:10:51.621Z,3.88
2023-05-11T04:15:54.395Z,3.10
2023-05-11T04:20:56.308Z,3.35
2023-05-11T04:25:57.848Z,3.63
2023-05-11T04:30:59.321Z,4.05
2023-05-11T04:36:01.593Z,3.15
2023-05-11T04:41:08.167Z,3.40
2023-05-11T04:46:10.924Z,4.93
2023-05-11T04:51:12.717Z,4.82
2023-05-11T04:56:20.011Z,3.97
2023-05-11T05:01:23.341Z,3.45
2023-05-11T05:06:24.816Z,3.40
2023-05-11T05:11:26.357Z,3.65
2023-05-11T05:16:29.074Z,3.05
2023-05-11T05:21:32.474Z,3.75
2023-05-11T05:26:34.078Z,2.97
2023-05-11T05:31:35.746Z,3.30
2023-05-11T05:36:39.331Z,2.22
2023-05-11T05:41:42.930Z,4.80
2023-05-11T05:46:45.456Z,3.22
2023-05-11T05:51:47.931Z,3.17
2023-05-11T05:56:50.366Z,4.05
2023-05-11T06:01:51.888Z,3.65
2023-05-11T06:06:53.537Z,4.95
2023-05-11T06:11:55.701Z,5.13
2023-05-11T06:16:59.168Z,4.18
2023-05-11T06:22:05.855Z,4.38
2023-05-11T06:27:09.380Z,4.45
2023-05-11T06:32:11.114Z,4.28
2023-05-11T06:37:20.461Z,4.13
2023-05-11T06:42:24.652Z,4.53
2023-05-11T06:47:26.844Z,4.90
2023-05-11T06:52:28.626Z,5.25
2023-05-11T06:57:30.146Z,4.05
2023-05-11T07:02:31.839Z,4.57
2023-05-11T07:07:33.336Z,5.18
2023-05-11T07:12:34.894Z,4.72
2023-05-11T07:17:36.375Z,4.75
2023-05-11T07:22:37.830Z,3.28
2023-05-11T07:27:39.327Z,4.85
2023-05-11T07:32:40.881Z,4.57
2023-05-11T07:37:42.691Z,5.03
2023-05-11T07:42:44.339Z,5.40
2023-05-11T07:47:46.014Z,4.55
2023-05-11T07:52:47.667Z,4.50
2023-05-11T07:57:49.159Z,5.53
2023-05-11T08:02:50.579Z,6.15
2023-05-11T08:07:52.105Z,5.22
2023-05-11T08:12:53.585Z,4.28
2023-05-11T08:17:55.397Z,3.47
2023-05-11T08:22:57.782Z,4.05
2023-05-11T08:27:59.249Z,3.83
2023-05-11T08:33:00.838Z,4.35
2023-05-11T08:38:02.386Z,4.25
2023-05-11T08:43:05.637Z,4.22
2023-05-11T08:48:07.335Z,4.47
2023-05-11T08:53:08.855Z,3.92
2023-05-11T08:58:10.958Z,3.70
2023-05-11T09:03:13.081Z,3.67
2023-05-11T09:08:17.243Z,3.83
2023-05-11T09:13:18.836Z,3.92
2023-05-11T09:18:20.724Z,3.38
2023-05-11T09:23:26.917Z,2.80
2023-05-11T09:33:36.902Z,2.72
2023-05-11T09:38:38.458Z,2.58
2023-05-11T09:43:40.045Z,2.47
2023-05-11T09:48:41.585Z,2.30
2023-05-11T09:58:57.549Z,2.15
2023-05-11T10:04:17.842Z,2.92
2023-05-11T10:09:25.280Z,2.10
2023-05-11T10:14:27.537Z,2.10
2023-05-11T10:19:29.232Z,1.88
2023-05-11T10:24:32.429Z,2.05
2023-05-11T10:29:34.419Z,2.10
2023-05-11T10:34:36.787Z,1.90
2023-05-11T10:39:39.856Z,2.00
2023-05-11T10:45:03.093Z,2.20
2023-05-11T10:50:34.025Z,1.90
2023-05-11T10:55:52.471Z,1.83
2023-05-11T11:01:06.262Z,2.30
2023-05-11T11:06:22.629Z,1.90
2023-05-11T11:11:32.276Z,1.88
2023-05-11T11:16:33.923Z,2.45
2023-05-11T11:21:42.604Z,2.22
2023-05-11T11:26:50.583Z,2.13
2023-05-11T11:31:52.167Z,1.75
2023-05-11T11:37:03.519Z,2.58
2023-05-11T11:42:13.036Z,2.38
2023-05-11T11:52:26.645Z,2.63
2023-05-11T11:57:43.950Z,3.45
2023-05-11T12:02:45.821Z,3.33
2023-05-11T12:07:50.529Z,4.55
2023-05-11T12:12:58.583Z,3.45
2023-05-11T12:23:04.674Z,4.82
2023-05-11T12:28:06.564Z,5.25
2023-05-11T12:33:08.267Z,5.75
2023-05-11T12:38:10.980Z,5.82
2023-05-11T12:43:17.850Z,5.13
2023-05-11T12:48:19.473Z,5.53
2023-05-11T12:53:22.079Z,4.22
2023-05-11T12:58:23.616Z,4.13
2023-05-11T13:03:34.079Z,3.60
2023-05-11T13:08:46.400Z,3.03
2023-05-11T13:13:51.683Z,4.32
2023-05-11T13:18:59.147Z,3.65
2023-05-11T13:24:01.969Z,3.35
2023-05-11T13:29:10.866Z,3.78
2023-05-11T13:34:12.949Z,2.90
2023-05-11T13:39:14.563Z,3.20
2023-05-11T13:44:16.117Z,2.58
2023-05-11T13:49:17.700Z,2.40
2023-05-11T13:54:19.297Z,2.35
2023-05-11T13:59:21.320Z,2.50
2023-05-11T14:04:22.908Z,1.60
2023-05-11T14:09:24.450Z,2.70
2023-05-11T14:14:26.205Z,1.80
2023-05-11T14:19:27.765Z,1.98
2023-05-11T14:24:29.320Z,1.88
2023-05-11T14:29:30.854Z,2.30
2023-05-11T14:34:32.307Z,2.80
2023-05-11T14:39:33.777Z,1.92
2023-05-11T14:44:35.335Z,2.38
2023-05-11T14:49:36.954Z,1.73
2023-05-11T14:54:38.516Z,1.95
2023-05-11T14:59:51.064Z,2.08
2023-05-11T15:04:59.674Z,2.08
2023-05-11T15:10:02.182Z,2.55
2023-05-11T15:15:04.630Z,2.42
2023-05-11T15:20:07.212Z,2.20
2023-05-11T15:25:09.267Z,2.65
2023-05-11T15:30:11.217Z,3.20
2023-05-11T15:35:14.230Z,2.80
2023-05-11T15:40:16.210Z,3.08
2023-05-11T15:45:18.336Z,2.65
2023-05-11T15:50:20.488Z,2.85
2023-05-11T15:55:23.360Z,2.35
2023-05-11T16:00:24.822Z,3.40
2023-05-11T16:05:26.798Z,3.05
2023-05-11T16:10:28.338Z,3.53
2023-05-11T16:15:31.153Z,4.22
2023-05-11T16:20:32.952Z,3.58
2023-05-11T16:25:34.475Z,4.47
2023-05-11T16:30:36.392Z,5.65
2023-05-11T16:35:37.880Z,6.53
2023-05-11T16:40:39.356Z,7.22
2023-05-11T16:45:40.862Z,7.88
2023-05-11T16:50:43.011Z,5.50
2023-05-11T16:55:44.490Z,7.97
2023-05-11T17:00:45.971Z,7.00
2023-05-11T17:05:47.596Z,6.35
2023-05-11T17:10:49.106Z,6.85
2023-05-11T17:15:51.439Z,7.43
2023-05-11T17:20:56.724Z,6.95
2023-05-11T17:25:59.160Z,7.03
2023-05-11T17:31:11.558Z,7.25
2023-05-11T17:36:13.221Z,5.95
2023-05-11T17:41:15.453Z,5.00
2023-05-11T17:46:17.133Z,5.07
2023-05-11T17:51:20.211Z,4.72
2023-05-11T17:56:22.301Z,5.75
2023-05-11T18:01:23.834Z,4.82
2023-05-11T18:06:25.605Z,4.05
2023-05-11T18:11:27.642Z,3.90
2023-05-11T18:16:29.176Z,3.92
2023-05-11T18:21:31.110Z,4.07
2023-05-11T18:26:32.602Z,4.32
2023-05-11T18:31:34.179Z,4.07
2023-05-11T18:36:35.705Z,4.03
2023-05-11T18:41:37.245Z,3.88
2023-05-11T18:46:38.800Z,4.72
2023-05-11T18:51:40.761Z,4.93
2023-05-11T18:56:42.655Z,4.13
2023-05-11T19:01:47.896Z,4.78
2023-05-11T19:06:50.024Z,4.07
2023-05-11T19:11:51.531Z,4.82
2023-05-11T19:16:53.060Z,4.30
2023-05-11T19:21:54.533Z,5.47
2023-05-11T19:27:06.752Z,4.63
2023-05-11T19:32:09.612Z,4.68
2023-05-11T19:37:11.416Z,5.20
2023-05-11T19:42:12.920Z,5.32
2023-05-11T19:47:14.569Z,4.80
2023-05-11T19:52:16.302Z,5.55
2023-05-11T19:57:18.425Z,5.75
2023-05-11T20:02:20.024Z,5.32
2023-05-11T20:07:24.825Z,4.90
2023-05-11T20:12:26.370Z,4.57
2023-05-11T20:17:31.208Z,5.13
2023-05-11T20:22:32.763Z,5.00
2023-05-11T20:27:34.500Z,4.55
2023-05-11T20:32:37.219Z,4.63
2023-05-11T20:37:39.703Z,4.95
2023-05-11T20:42:41.363Z,4.60
2023-05-11T20:47:42.958Z,4.50
2023-05-11T20:52:44.573Z,4.60
2023-05-11T20:57:46.081Z,4.22
2023-05-11T21:02:47.732Z,5.13
2023-05-11T21:07:49.303Z,3.70
2023-05-11T21:12:50.949Z,4.85
2023-05-11T21:17:53.124Z,4.20
2023-05-11T21:22:54.679Z,5.22
2023-05-11T21:27:56.311Z,5.82
2023-05-11T21:32:57.918Z,5.20
2023-05-11T21:37:59.446Z,5.22
2023-05-11T21:43:00.996Z,5.72
2023-05-11T21:48:02.513Z,4.95
2023-05-11T21:53:04.784Z,5.30
2023-05-11T21:58:06.342Z,5.10
2023-05-11T22:03:08.237Z,6.35
2023-05-11T22:08:15.105Z,5.07
2023-05-11T22:13:17.140Z,4.85
2023-05-11T22:18:18.790Z,4.93
2023-05-11T22:23:21.124Z,4.63
2023-05-11T22:28:22.864Z,6.18
2023-05-11T22:33:24.517Z,4.97
2023-05-11T22:38:26.073Z,5.13
2023-05-11T22:43:27.706Z,4.50
2023-05-11T22:48:29.348Z,5.72
2023-05-11T22:53:31.212Z,5.68
2023-05-11T22:58:33.190Z,6.07
2023-05-11T23:03:34.726Z,5.82
2023-05-11T23:08:36.311Z,5.15
2023-05-11T23:13:38.223Z,6.32
2023-05-11T23:18:39.941Z,7.00
2023-05-11T23:23:44.474Z,6.25
2023-05-11T23:28:46.163Z,6.70
2023-05-11T23:33:47.694Z,6.38
2023-05-11T23:38:49.445Z,6.80
2023-05-11T23:43:50.985Z,6.20
2023-05-11T23:48:52.505Z,6.35
2023-05-11T23:53:54.096Z,7.13
2023-05-11T23:58:55.629Z,6.32
